Time,TemperatureF,DewpointF,PressureIn,WindDirection,WindDirectionDegrees,WindSpeedMPH,WindSpeedGustMPH,Humidity,HourlyPrecipIn,Conditions,Clouds,dailyrainin,SoftwareType,DateUTC
2013-01-11 00:09:00,28.2,22.0,30.52,ESE,113,0.0,2.0,79,0.00,,,0.00,weatherlink.com 1.10,2013-01-11 05:09:00,
2013-01-11 00:24:00,27.8,23.0,30.52,SE,136,0.0,2.0,82,0.00,,,0.00,weatherlink.com 1.10,2013-01-11 05:24:00,
2013-01-11 00:39:00,26.9,22.0,30.51,SSW,198,0.0,0.0,83,0.00,,,0.00,weatherlink.com 1.10,2013-01-11 05:39:00,
2013-01-11 00:54:00,26.2,22.0,30.50,SE,136,0.0,0.0,84,0.00,,,0.00,weatherlink.com 1.10,2013-01-11 05:54:00,
2013-01-11 01:09:00,25.8,22.0,30.50,East,98,0.0,1.0,86,0.00,,,0.00,weatherlink.com 1.10,2013-01-11 06:09:00,
2013-01-11 01:24:00,25.2,22.0,30.51,ESE,105,0.0,0.0,86,0.00,,,0.00,weatherlink.com 1.10,2013-01-11 06:24:00,
2013-01-11 01:39:00,24.5,22.0,30.50,West,264,0.0,0.0,88,0.00,,,0.00,weatherlink.com 1.10,2013-01-11 06:39:00,
2013-01-11 01:54:00,23.8,21.0,30.51,SE,133,0.0,0.0,89,0.00,,,0.00,weatherlink.com 1.10,2013-01-11 06:54:00,
2013-01-11 02:09:00,24.0,21.0,30.51,WSW,245,0.0,0.0,89,0.00,,,0.00,weatherlink.com 1.10,2013-01-11 07:09:00,
2013-01-11 02:24:00,23.4,21.0,30.50,WSW,243,0.0,0.0,89,0.00,,,0.00,weatherlink.com 1.10,2013-01-11 07:24:00,
2013-01-11 02:39:00,22.5,20.0,30.50,WSW,243,0.0,1.0,90,0.00,,,0.00,weatherlink.com 1.10,2013-01-11 07:39:00,
2013-01-11 02:54:00,22.2,20.0,30.49,WSW,243,0.0,0.0,92,0.00,,,0.00,weatherlink.com 1.10,2013-01-11 07:54:00,
2013-01-11 03:09:00,21.7,20.0,30.48,WSW,243,0.0,0.0,92,0.00,,,0.00,weatherlink.com 1.10,2013-01-11 08:09:00,
2013-01-11 03:24:00,20.7,19.0,30.49,WSW,243,0.0,0.0,91,0.00,,,0.00,weatherlink.com 1.10,2013-01-11 08:24:00,
2013-01-11 03:39:00,20.9,19.0,30.48,WSW,244,0.0,0.0,93,0.00,,,0.00,weatherlink.com 1.10,2013-01-11 08:39:00,
2013-01-11 03:54:00,20.3,18.0,30.48,WSW,243,0.0,0.0,92,0.00,,,0.00,weatherlink.com 1.10,2013-01-11 08:54:00,
2013-01-11 04:09:00,19.3,18.0,30.48,WSW,243,0.0,0.0,93,0.00,,,0.00,weatherlink.com 1.10,2013-01-11 09:09:00,
2013-01-11 04:25:00,20.3,19.0,30.48,WSW,243,0.0,1.0,95,0.00,,,0.00,weatherlink.com 1.10,2013-01-11 09:25:00,
2013-01-11 04:40:00,20.0,19.0,30.47,WSW,243,0.0,0.0,94,0.00,,,0.00,weatherlink.com 1.10,2013-01-11 09:40:00,
2013-01-11 04:55:00,18.9,17.0,30.48,WSW,243,0.0,0.0,93,0.00,,,0.00,weatherlink.com 1.10,2013-01-11 09:55:00,
2013-01-11 05:10:00,19.4,18.0,30.48,WSW,244,0.0,0.0,95,0.00,,,0.00,weatherlink.com 1.10,2013-01-11 10:10:00,
2013-01-11 05:25:00,19.4,18.0,30.48,WSW,243,0.0,0.0,94,0.00,,,0.00,weatherlink.com 1.10,2013-01-11 10:25:00,
2013-01-11 05:40:00,19.4,18.0,30.48,WSW,243,0.0,0.0,94,0.00,,,0.00,weatherlink.com 1.10,2013-01-11 10:40:00,
2013-01-11 05:55:00,19.9,19.0,30.48,WSW,243,0.0,0.0,95,0.00,,,0.00,weatherlink.com 1.10,2013-01-11 10:55:00,
2013-01-11 06:10:00,19.7,18.0,30.48,WSW,243,0.0,0.0,93,0.00,,,0.00,weatherlink.com 1.10,2013-01-11 11:10:00,
2013-01-11 06:25:00,20.6,19.0,30.48,WSW,244,0.0,0.0,95,0.00,,,0.00,weatherlink.com 1.10,2013-01-11 11:25:00,
2013-01-11 06:40:00,20.9,20.0,30.48,WSW,243,0.0,0.0,94,0.00,,,0.00,weatherlink.com 1.10,2013-01-11 11:40:00,
2013-01-11 06:58:00,20.9,20.0,30.48,WSW,243,0.0,0.0,94,0.00,,,0.00,weatherlink.com 1.10,2013-01-11 11:58:00,
2013-01-11 07:10:00,21.5,20.0,30.48,WSW,243,0.0,0.0,94,0.00,,,0.00,weatherlink.com 1.10,2013-01-11 12:10:00,
2013-01-11 07:25:00,21.7,20.0,30.48,WSW,243,0.0,0.0,94,0.00,,,0.00,weatherlink.com 1.10,2013-01-11 12:25:00,
2013-01-11 07:40:00,22.0,20.0,30.49,WSW,244,0.0,0.0,93,0.00,,,0.00,weatherlink.com 1.10,2013-01-11 12:40:00,
2013-01-11 07:55:00,22.3,21.0,30.49,WSW,245,0.0,0.0,94,0.00,,,0.00,weatherlink.com 1.10,2013-01-11 12:55:00,
2013-01-11 08:10:00,23.1,21.0,30.49,WSW,243,0.0,0.0,93,0.00,,,0.00,weatherlink.com 1.10,2013-01-11 13:10:00,
2013-01-11 08:25:00,24.3,23.0,30.49,WSW,243,0.0,0.0,94,0.00,,,0.00,weatherlink.com 1.10,2013-01-11 13:25:00,
2013-01-11 08:40:00,25.6,24.0,30.48,WSW,243,0.0,0.0,92,0.00,,,0.00,weatherlink.com 1.10,2013-01-11 13:40:00,
2013-01-11 08:55:00,27.2,24.0,30.49,WSW,243,0.0,0.0,89,0.00,,,0.00,weatherlink.com 1.10,2013-01-11 13:55:00,
2013-01-11 09:10:00,28.7,25.0,30.49,WSW,243,0.0,0.0,84,0.00,,,0.00,weatherlink.com 1.10,2013-01-11 14:10:00,
2013-01-11 09:25:00,30.9,25.0,30.49,WSW,243,0.0,0.0,80,0.00,,,0.00,weatherlink.com 1.10,2013-01-11 14:25:00,
2013-01-11 09:40:00,32.7,25.0,30.48,SE,132,0.0,0.0,74,0.00,,,0.00,weatherlink.com 1.10,2013-01-11 14:40:00,
2013-01-11 09:55:00,33.3,24.0,30.48,East,96,1.0,2.0,70,0.00,,,0.00,weatherlink.com 1.10,2013-01-11 14:55:00,
2013-01-11 10:10:00,34.2,25.0,30.47,East,98,0.0,3.0,68,0.00,,,0.00,weatherlink.com 1.10,2013-01-11 15:10:00,
2013-01-11 10:25:00,35.0,25.0,30.46,ENE,75,0.0,4.0,66,0.00,,,0.00,weatherlink.com 1.10,2013-01-11 15:25:00,
2013-01-11 10:40:00,35.2,24.0,30.45,ESE,113,2.0,6.0,64,0.00,,,0.00,weatherlink.com 1.10,2013-01-11 15:40:00,
2013-01-11 10:55:00,34.7,23.0,30.44,SSE,150,2.0,5.0,63,0.00,,,0.00,weatherlink.com 1.10,2013-01-11 15:55:00,
2013-01-11 11:10:00,34.7,23.0,30.43,ENE,75,0.0,3.0,63,0.00,,,0.00,weatherlink.com 1.10,2013-01-11 16:10:00,
2013-01-11 11:25:00,35.0,23.0,30.42,SE,136,0.0,5.0,63,0.00,,,0.00,weatherlink.com 1.10,2013-01-11 16:25:00,
2013-01-11 11:40:00,35.4,23.0,30.42,ENE,74,1.0,4.0,61,0.00,,,0.00,weatherlink.com 1.10,2013-01-11 16:40:00,
2013-01-11 11:55:00,35.7,23.0,30.42,SSW,195,1.0,6.0,61,0.00,,,0.00,weatherlink.com 1.10,2013-01-11 16:55:00,
2013-01-11 12:10:00,35.6,23.0,30.41,East,80,3.0,6.0,61,0.00,,,0.00,weatherlink.com 1.10,2013-01-11 17:10:00,
2013-01-11 12:26:00,35.5,24.0,30.40,SW,215,2.0,5.0,62,0.00,,,0.00,weatherlink.com 1.10,2013-01-11 17:26:00,
2013-01-11 12:41:00,35.9,23.0,30.39,SW,232,1.0,4.0,60,0.00,,,0.00,weatherlink.com 1.10,2013-01-11 17:41:00,
2013-01-11 12:56:00,36.2,24.0,30.39,SSE,159,2.0,5.0,62,0.00,,,0.00,weatherlink.com 1.10,2013-01-11 17:56:00,
2013-01-11 13:11:00,35.9,25.0,30.39,ESE,109,2.0,10.0,66,0.00,,,0.00,weatherlink.com 1.10,2013-01-11 18:11:00,
2013-01-11 13:26:00,35.8,26.0,30.38,SW,215,0.0,4.0,68,0.00,,,0.00,weatherlink.com 1.10,2013-01-11 18:26:00,
2013-01-11 13:41:00,35.7,26.0,30.37,ESE,105,2.0,4.0,69,0.00,,,0.00,weatherlink.com 1.10,2013-01-11 18:41:00,
2013-01-11 13:56:00,35.3,26.0,30.36,East,81,1.0,4.0,70,0.00,,,0.00,weatherlink.com 1.10,2013-01-11 18:56:00,
2013-01-11 14:11:00,35.2,27.0,30.36,East,98,0.0,3.0,72,0.00,,,0.00,weatherlink.com 1.10,2013-01-11 19:11:00,
2013-01-11 14:26:00,35.1,27.0,30.36,East,89,0.0,3.0,72,0.00,,,0.00,weatherlink.com 1.10,2013-01-11 19:26:00,
2013-01-11 14:41:00,35.1,27.0,30.36,East,94,0.0,4.0,72,0.00,,,0.00,weatherlink.com 1.10,2013-01-11 19:41:00,
2013-01-11 14:56:00,34.7,27.0,30.35,ENE,71,2.0,3.0,74,0.00,,,0.00,weatherlink.com 1.10,2013-01-11 19:56:00,
2013-01-11 15:11:00,34.4,27.0,30.34,East,85,0.0,2.0,74,0.00,,,0.00,weatherlink.com 1.10,2013-01-11 20:11:00,
2013-01-11 15:26:00,34.2,27.0,30.34,East,94,2.0,3.0,75,0.00,,,0.00,weatherlink.com 1.10,2013-01-11 20:26:00,
2013-01-11 15:41:00,33.9,27.0,30.32,East,98,2.0,4.0,75,0.00,,,0.00,weatherlink.com 1.10,2013-01-11 20:41:00,
2013-01-11 15:56:00,33.6,27.0,30.32,East,98,0.0,3.0,76,0.00,,,0.00,weatherlink.com 1.10,2013-01-11 20:56:00,
2013-01-11 16:11:00,33.5,27.0,30.31,East,92,0.0,2.0,77,0.00,,,0.00,weatherlink.com 1.10,2013-01-11 21:11:00,
2013-01-11 16:26:00,33.3,27.0,30.32,East,86,0.0,1.0,77,0.00,,,0.00,weatherlink.com 1.10,2013-01-11 21:26:00,
2013-01-11 16:41:00,33.1,27.0,30.31,ESE,105,0.0,0.0,79,0.00,,,0.00,weatherlink.com 1.10,2013-01-11 21:41:00,
2013-01-11 16:56:00,33.0,27.0,30.30,SE,138,0.0,2.0,78,0.00,,,0.00,weatherlink.com 1.10,2013-01-11 21:56:00,
2013-01-11 17:11:00,33.0,27.0,30.30,SE,129,0.0,1.0,80,0.00,,,0.00,weatherlink.com 1.10,2013-01-11 22:11:00,
2013-01-11 17:26:00,32.6,29.0,30.30,SE,128,0.0,0.0,85,0.00,,,0.00,weatherlink.com 1.10,2013-01-11 22:26:00,
2013-01-11 17:41:00,32.1,29.0,30.30,SE,129,0.0,0.0,89,0.00,,,0.00,weatherlink.com 1.10,2013-01-11 22:41:00,
2013-01-11 17:56:00,31.9,30.0,30.29,SE,129,0.0,0.0,91,0.00,,,0.00,weatherlink.com 1.10,2013-01-11 22:56:00,
2013-01-11 18:11:00,31.7,30.0,30.28,SE,129,0.0,0.0,92,0.02,,,0.02,weatherlink.com 1.10,2013-01-11 23:11:00,
2013-01-11 18:26:00,31.3,30.0,30.27,SE,128,0.0,0.0,93,0.03,,,0.03,weatherlink.com 1.10,2013-01-11 23:26:00,
2013-01-11 18:41:00,31.3,30.0,30.27,SE,128,0.0,0.0,93,0.03,,,0.03,weatherlink.com 1.10,2013-01-11 23:41:00,
2013-01-11 18:56:00,31.3,30.0,30.27,SW,236,0.0,0.0,94,0.03,,,0.03,weatherlink.com 1.10,2013-01-11 23:56:00,
2013-01-11 19:11:00,31.3,30.0,30.27,SW,236,0.0,0.0,94,0.01,,,0.03,weatherlink.com 1.10,2013-01-12 00:11:00,
2013-01-11 19:26:00,31.4,30.0,30.27,SW,236,0.0,0.0,94,0.00,,,0.03,weatherlink.com 1.10,2013-01-12 00:26:00,
2013-01-11 19:41:00,31.4,30.0,30.26,SW,236,0.0,0.0,95,0.01,,,0.04,weatherlink.com 1.10,2013-01-12 00:41:00,
2013-01-11 19:56:00,31.3,30.0,30.26,SW,236,0.0,1.0,94,0.02,,,0.05,weatherlink.com 1.10,2013-01-12 00:56:00,
2013-01-11 20:11:00,31.2,30.0,30.26,ENE,68,0.0,0.0,94,0.03,,,0.06,weatherlink.com 1.10,2013-01-12 01:11:00,
2013-01-11 20:26:00,31.4,30.0,30.25,ENE,68,0.0,0.0,94,0.04,,,0.07,weatherlink.com 1.10,2013-01-12 01:26:00,
2013-01-11 20:41:00,31.5,30.0,30.25,East,89,0.0,0.0,95,0.03,,,0.07,weatherlink.com 1.10,2013-01-12 01:41:00,
2013-01-11 20:56:00,31.6,30.0,30.24,East,89,0.0,0.0,95,0.02,,,0.07,weatherlink.com 1.10,2013-01-12 01:56:00,
2013-01-11 21:11:00,31.6,30.0,30.24,East,89,0.0,0.0,95,0.02,,,0.08,weatherlink.com 1.10,2013-01-12 02:11:00,
2013-01-11 21:26:00,31.7,31.0,30.24,East,96,0.0,0.0,95,0.01,,,0.08,weatherlink.com 1.10,2013-01-12 02:26:00,
2013-01-11 21:41:00,31.7,31.0,30.23,NE,44,0.0,2.0,95,0.02,,,0.09,weatherlink.com 1.10,2013-01-12 02:41:00,
2013-01-11 21:56:00,31.8,31.0,30.23,NE,44,0.0,0.0,95,0.02,,,0.09,weatherlink.com 1.10,2013-01-12 02:56:00,
2013-01-11 22:11:00,31.7,31.0,30.24,SSW,212,0.0,0.0,96,0.01,,,0.09,weatherlink.com 1.10,2013-01-12 03:11:00,
2013-01-11 22:26:00,31.8,31.0,30.24,SW,232,0.0,0.0,96,0.02,,,0.10,weatherlink.com 1.10,2013-01-12 03:26:00,
2013-01-11 22:41:00,31.9,31.0,30.23,ESE,110,0.0,0.0,96,0.01,,,0.10,weatherlink.com 1.10,2013-01-12 03:41:00,
2013-01-11 22:56:00,31.9,31.0,30.24,ESE,110,0.0,0.0,96,0.02,,,0.11,weatherlink.com 1.10,2013-01-12 03:56:00,
2013-01-11 23:11:00,31.9,31.0,30.24,ESE,110,0.0,0.0,96,0.03,,,0.12,weatherlink.com 1.10,2013-01-12 04:11:00,
2013-01-11 23:26:00,32.0,31.0,30.23,ESE,110,0.0,0.0,96,0.03,,,0.13,weatherlink.com 1.10,2013-01-12 04:26:00,
2013-01-11 23:41:00,32.0,31.0,30.23,ESE,110,0.0,0.0,96,0.03,,,0.13,weatherlink.com 1.10,2013-01-12 04:41:00,
2013-01-11 23:57:00,32.0,31.0,30.22,ESE,110,0.0,0.0,96,0.03,,,0.14,weatherlink.com 1.10,2013-01-12 04:57:00,